sensor_id;sensor_type;location;lat;lon;timestamp;pressure;altitude;pressure_sealevel;temperature
4421;BMP180;11824;51.178;13.546;2023-04-25T00:00:19;99434.00;;;8.30
4421;BMP180;11824;51.178;13.546;2023-04-25T00:02:46;99430.00;;;8.40
4421;BMP180;11824;51.178;13.546;2023-04-25T00:05:14;99433.00;;;8.40
4421;BMP180;11824;51.178;13.546;2023-04-25T00:07:42;99427.00;;;8.50
4421;BMP180;11824;51.178;13.546;2023-04-25T00:10:10;99423.00;;;8.60
4421;BMP180;11824;51.178;13.546;2023-04-25T00:12:39;99426.00;;;8.60
4421;BMP180;11824;51.178;13.546;2023-04-25T00:15:07;99427.00;;;8.70
4421;BMP180;11824;51.178;13.546;2023-04-25T00:17:36;99436.00;;;8.70
4421;BMP180;11824;51.178;13.546;2023-04-25T00:20:05;99438.00;;;8.70
4421;BMP180;11824;51.178;13.546;2023-04-25T00:22:35;99435.00;;;8.70
4421;BMP180;11824;51.178;13.546;2023-04-25T00:25:04;99429.00;;;8.70
4421;BMP180;11824;51.178;13.546;2023-04-25T00:27:32;99425.00;;;8.70
4421;BMP180;11824;51.178;13.546;2023-04-25T00:30:00;99427.00;;;8.60
4421;BMP180;11824;51.178;13.546;2023-04-25T00:32:28;99430.00;;;8.50
4421;BMP180;11824;51.178;13.546;2023-04-25T00:34:55;99428.00;;;8.50
4421;BMP180;11824;51.178;13.546;2023-04-25T00:37:24;99422.00;;;8.40
4421;BMP180;11824;51.178;13.546;2023-04-25T00:39:51;99416.00;;;8.30
4421;BMP180;11824;51.178;13.546;2023-04-25T00:42:20;99421.00;;;8.20
4421;BMP180;11824;51.178;13.546;2023-04-25T00:44:48;99425.00;;;8.20
4421;BMP180;11824;51.178;13.546;2023-04-25T00:47:16;99424.00;;;8.10
4421;BMP180;11824;51.178;13.546;2023-04-25T00:49:44;99421.00;;;8.00
4421;BMP180;11824;51.178;13.546;2023-04-25T00:52:11;99420.00;;;8.00
4421;BMP180;11824;51.178;13.546;2023-04-25T00:54:39;99411.00;;;7.90
4421;BMP180;11824;51.178;13.546;2023-04-25T00:57:06;99412.00;;;7.80
4421;BMP180;11824;51.178;13.546;2023-04-25T00:59:34;99411.00;;;7.80
4421;BMP180;11824;51.178;13.546;2023-04-25T01:02:03;99411.00;;;7.70
4421;BMP180;11824;51.178;13.546;2023-04-25T01:04:32;99412.00;;;7.60
4421;BMP180;11824;51.178;13.546;2023-04-25T01:06:59;99418.00;;;7.50
4421;BMP180;11824;51.178;13.546;2023-04-25T01:09:26;99415.00;;;7.50
4421;BMP180;11824;51.178;13.546;2023-04-25T01:11:54;99414.00;;;7.40
4421;BMP180;11824;51.178;13.546;2023-04-25T01:14:22;99414.00;;;7.40
4421;BMP180;11824;51.178;13.546;2023-04-25T01:16:49;99412.00;;;7.30
4421;BMP180;11824;51.178;13.546;2023-04-25T01:19:17;99400.00;;;7.30
4421;BMP180;11824;51.178;13.546;2023-04-25T01:21:45;99403.00;;;7.20
4421;BMP180;11824;51.178;13.546;2023-04-25T01:24:13;99403.00;;;7.10
4421;BMP180;11824;51.178;13.546;2023-04-25T01:26:42;99405.00;;;7.10
4421;BMP180;11824;51.178;13.546;2023-04-25T01:29:16;99410.00;;;7.10
4421;BMP180;11824;51.178;13.546;2023-04-25T01:31:44;99412.00;;;7.10
4421;BMP180;11824;51.178;13.546;2023-04-25T01:34:12;99403.00;;;7.10
4421;BMP180;11824;51.178;13.546;2023-04-25T01:36:39;99415.00;;;7.00
4421;BMP180;11824;51.178;13.546;2023-04-25T01:39:08;99402.00;;;7.00
4421;BMP180;11824;51.178;13.546;2023-04-25T01:41:35;99394.00;;;7.00
4421;BMP180;11824;51.178;13.546;2023-04-25T01:44:03;99405.00;;;7.00
4421;BMP180;11824;51.178;13.546;2023-04-25T01:46:33;99399.00;;;7.00
4421;BMP180;11824;51.178;13.546;2023-04-25T01:49:00;99398.00;;;7.00
4421;BMP180;11824;51.178;13.546;2023-04-25T01:51:28;99395.00;;;7.00
4421;BMP180;11824;51.178;13.546;2023-04-25T01:53:55;99392.00;;;7.00
4421;BMP180;11824;51.178;13.546;2023-04-25T01:56:29;99401.00;;;7.00
4421;BMP180;11824;51.178;13.546;2023-04-25T01:58:57;99399.00;;;7.00
4421;BMP180;11824;51.178;13.546;2023-04-25T02:01:24;99407.00;;;7.00
4421;BMP180;11824;51.178;13.546;2023-04-25T02:03:52;99396.00;;;7.00
4421;BMP180;11824;51.178;13.546;2023-04-25T02:06:20;99401.00;;;7.00
4421;BMP180;11824;51.178;13.546;2023-04-25T02:08:47;99407.00;;;6.90
4421;BMP180;11824;51.178;13.546;2023-04-25T02:11:14;99408.00;;;7.00
4421;BMP180;11824;51.178;13.546;2023-04-25T02:13:42;99407.00;;;6.90
4421;BMP180;11824;51.178;13.546;2023-04-25T02:16:10;99408.00;;;6.90
4421;BMP180;11824;51.178;13.546;2023-04-25T02:18:37;99402.00;;;6.90
4421;BMP180;11824;51.178;13.546;2023-04-25T02:21:05;99400.00;;;6.90
4421;BMP180;11824;51.178;13.546;2023-04-25T02:23:33;99397.00;;;6.90
4421;BMP180;11824;51.178;13.546;2023-04-25T02:26:00;99400.00;;;6.80
4421;BMP180;11824;51.178;13.546;2023-04-25T02:28:27;99402.00;;;6.80
4421;BMP180;11824;51.178;13.546;2023-04-25T02:30:55;99406.00;;;6.80
4421;BMP180;11824;51.178;13.546;2023-04-25T02:33:23;99403.00;;;6.80
4421;BMP180;11824;51.178;13.546;2023-04-25T02:35:50;99397.00;;;6.80
4421;BMP180;11824;51.178;13.546;2023-04-25T02:38:17;99401.00;;;6.70
4421;BMP180;11824;51.178;13.546;2023-04-25T02:40:45;99399.00;;;6.70
4421;BMP180;11824;51.178;13.546;2023-04-25T02:43:12;99401.00;;;6.70
4421;BMP180;11824;51.178;13.546;2023-04-25T02:45:39;99393.00;;;6.70
4421;BMP180;11824;51.178;13.546;2023-04-25T02:48:07;99390.00;;;6.70
4421;BMP180;11824;51.178;13.546;2023-04-25T02:50:35;99404.00;;;6.70
4421;BMP180;11824;51.178;13.546;2023-04-25T02:53:02;99403.00;;;6.60
4421;BMP180;11824;51.178;13.546;2023-04-25T02:55:29;99405.00;;;6.60
4421;BMP180;11824;51.178;13.546;2023-04-25T02:57:56;99394.00;;;6.60
4421;BMP180;11824;51.178;13.546;2023-04-25T03:00:24;99390.00;;;6.60
4421;BMP180;11824;51.178;13.546;2023-04-25T03:02:51;99379.00;;;6.60
4421;BMP180;11824;51.178;13.546;2023-04-25T03:05:19;99383.00;;;6.50
4421;BMP180;11824;51.178;13.546;2023-04-25T03:07:47;99389.00;;;6.50
4421;BMP180;11824;51.178;13.546;2023-04-25T03:10:14;99389.00;;;6.50
4421;BMP180;11824;51.178;13.546;2023-04-25T03:12:41;99388.00;;;6.40
4421;BMP180;11824;51.178;13.546;2023-04-25T03:15:09;99383.00;;;6.40
4421;BMP180;11824;51.178;13.546;2023-04-25T03:17:36;99383.00;;;6.40
4421;BMP180;11824;51.178;13.546;2023-04-25T03:20:05;99387.00;;;6.40
4421;BMP180;11824;51.178;13.546;2023-04-25T03:22:35;99386.00;;;6.40
4421;BMP180;11824;51.178;13.546;2023-04-25T03:25:03;99390.00;;;6.40
4421;BMP180;11824;51.178;13.546;2023-04-25T03:27:30;99380.00;;;6.40
4421;BMP180;11824;51.178;13.546;2023-04-25T03:29:57;99389.00;;;6.30
4421;BMP180;11824;51.178;13.546;2023-04-25T03:32:25;99394.00;;;6.30
4421;BMP180;11824;51.178;13.546;2023-04-25T03:34:52;99388.00;;;6.30
4421;BMP180;11824;51.178;13.546;2023-04-25T03:37:19;99389.00;;;6.20
4421;BMP180;11824;51.178;13.546;2023-04-25T03:39:48;99391.00;;;6.20
4421;BMP180;11824;51.178;13.546;2023-04-25T03:42:15;99395.00;;;6.20
4421;BMP180;11824;51.178;13.546;2023-04-25T03:44:42;99386.00;;;6.10
4421;BMP180;11824;51.178;13.546;2023-04-25T03:47:09;99394.00;;;6.10
4421;BMP180;11824;51.178;13.546;2023-04-25T03:49:37;99394.00;;;6.00
4421;BMP180;11824;51.178;13.546;2023-04-25T03:52:04;99395.00;;;6.00
4421;BMP180;11824;51.178;13.546;2023-04-25T03:54:32;99391.00;;;6.00
4421;BMP180;11824;51.178;13.546;2023-04-25T03:57:00;99393.00;;;6.00
4421;BMP180;11824;51.178;13.546;2023-04-25T03:59:27;99388.00;;;5.90
4421;BMP180;11824;51.178;13.546;2023-04-25T04:01:54;99385.00;;;5.90
4421;BMP180;11824;51.178;13.546;2023-04-25T04:04:22;99393.00;;;5.90
4421;BMP180;11824;51.178;13.546;2023-04-25T04:06:50;99393.00;;;5.90
4421;BMP180;11824;51.178;13.546;2023-04-25T04:09:19;99384.00;;;5.90
4421;BMP180;11824;51.178;13.546;2023-04-25T04:11:47;99388.00;;;5.90
4421;BMP180;11824;51.178;13.546;2023-04-25T04:14:15;99394.00;;;6.00
4421;BMP180;11824;51.178;13.546;2023-04-25T04:16:42;99386.00;;;6.00
4421;BMP180;11824;51.178;13.546;2023-04-25T04:19:09;99395.00;;;6.10
4421;BMP180;11824;51.178;13.546;2023-04-25T04:21:37;99397.00;;;6.20
4421;BMP180;11824;51.178;13.546;2023-04-25T04:24:04;99388.00;;;6.20
4421;BMP180;11824;51.178;13.546;2023-04-25T04:26:32;99398.00;;;6.30
4421;BMP180;11824;51.178;13.546;2023-04-25T04:29:01;99398.00;;;6.30
4421;BMP180;11824;51.178;13.546;2023-04-25T04:31:28;99387.00;;;6.30
4421;BMP180;11824;51.178;13.546;2023-04-25T04:33:56;99400.00;;;6.40
4421;BMP180;11824;51.178;13.546;2023-04-25T04:36:24;99403.00;;;6.40
4421;BMP180;11824;51.178;13.546;2023-04-25T04:38:53;99403.00;;;6.50
4421;BMP180;11824;51.178;13.546;2023-04-25T04:41:20;99399.00;;;6.60
4421;BMP180;11824;51.178;13.546;2023-04-25T04:43:48;99399.00;;;6.90
4421;BMP180;11824;51.178;13.546;2023-04-25T04:46:15;99408.00;;;7.50
4421;BMP180;11824;51.178;13.546;2023-04-25T04:48:43;99410.00;;;8.20
4421;BMP180;11824;51.178;13.546;2023-04-25T04:51:11;99412.00;;;9.00
4421;BMP180;11824;51.178;13.546;2023-04-25T04:53:38;99415.00;;;9.70
4421;BMP180;11824;51.178;13.546;2023-04-25T04:56:06;99420.00;;;10.40
4421;BMP180;11824;51.178;13.546;2023-04-25T04:58:33;99423.00;;;11.10
4421;BMP180;11824;51.178;13.546;2023-04-25T05:01:01;99431.00;;;11.70
4421;BMP180;11824;51.178;13.546;2023-04-25T05:03:29;99435.00;;;12.40
4421;BMP180;11824;51.178;13.546;2023-04-25T05:05:57;99434.00;;;13.00
4421;BMP180;11824;51.178;13.546;2023-04-25T05:08:24;99442.00;;;13.60
4421;BMP180;11824;51.178;13.546;2023-04-25T05:10:52;99450.00;;;14.10
4421;BMP180;11824;51.178;13.546;2023-04-25T05:13:19;99452.00;;;14.70
4421;BMP180;11824;51.178;13.546;2023-04-25T05:15:46;99458.00;;;15.20
4421;BMP180;11824;51.178;13.546;2023-04-25T05:18:14;99454.00;;;15.60
4421;BMP180;11824;51.178;13.546;2023-04-25T05:20:41;99452.00;;;16.10
4421;BMP180;11824;51.178;13.546;2023-04-25T05:23:10;99452.00;;;16.50
4421;BMP180;11824;51.178;13.546;2023-04-25T05:25:37;99449.00;;;16.90
4421;BMP180;11824;51.178;13.546;2023-04-25T05:28:04;99456.00;;;17.20
4421;BMP180;11824;51.178;13.546;2023-04-25T05:30:32;99446.00;;;17.40
4421;BMP180;11824;51.178;13.546;2023-04-25T05:33:00;99457.00;;;17.70
4421;BMP180;11824;51.178;13.546;2023-04-25T05:35:28;99453.00;;;17.90
4421;BMP180;11824;51.178;13.546;2023-04-25T05:37:55;99458.00;;;18.10
4421;BMP180;11824;51.178;13.546;2023-04-25T05:40:23;99461.00;;;18.40
4421;BMP180;11824;51.178;13.546;2023-04-25T05:42:51;99461.00;;;18.60
4421;BMP180;11824;51.178;13.546;2023-04-25T05:45:18;99455.00;;;18.80
4421;BMP180;11824;51.178;13.546;2023-04-25T05:47:45;99465.00;;;19.00
4421;BMP180;11824;51.178;13.546;2023-04-25T05:50:12;99465.00;;;19.10
4421;BMP180;11824;51.178;13.546;2023-04-25T05:52:40;99463.00;;;19.20
4421;BMP180;11824;51.178;13.546;2023-04-25T05:55:08;99462.00;;;19.40
4421;BMP180;11824;51.178;13.546;2023-04-25T05:57:36;99461.00;;;19.40
4421;BMP180;11824;51.178;13.546;2023-04-25T06:00:04;99468.00;;;19.50
4421;BMP180;11824;51.178;13.546;2023-04-25T06:02:35;99473.00;;;19.40
4421;BMP180;11824;51.178;13.546;2023-04-25T06:05:03;99470.00;;;19.40
4421;BMP180;11824;51.178;13.546;2023-04-25T06:07:31;99474.00;;;19.40
4421;BMP180;11824;51.178;13.546;2023-04-25T06:09:58;99466.00;;;19.20
4421;BMP180;11824;51.178;13.546;2023-04-25T06:12:26;99473.00;;;19.10
4421;BMP180;11824;51.178;13.546;2023-04-25T06:14:54;99472.00;;;18.90
4421;BMP180;11824;51.178;13.546;2023-04-25T06:17:21;99466.00;;;18.80
4421;BMP180;11824;51.178;13.546;2023-04-25T06:19:49;99463.00;;;18.80
4421;BMP180;11824;51.178;13.546;2023-04-25T06:22:16;99462.00;;;18.70
4421;BMP180;11824;51.178;13.546;2023-04-25T06:24:43;99473.00;;;18.50
4421;BMP180;11824;51.178;13.546;2023-04-25T06:27:11;99461.00;;;18.30
4421;BMP180;11824;51.178;13.546;2023-04-25T06:29:38;99467.00;;;18.10
4421;BMP180;11824;51.178;13.546;2023-04-25T06:32:06;99463.00;;;17.90
4421;BMP180;11824;51.178;13.546;2023-04-25T06:34:33;99460.00;;;17.60
4421;BMP180;11824;51.178;13.546;2023-04-25T06:37:01;99466.00;;;17.40
4421;BMP180;11824;51.178;13.546;2023-04-25T06:39:28;99467.00;;;17.10
4421;BMP180;11824;51.178;13.546;2023-04-25T06:41:55;99457.00;;;16.90
4421;BMP180;11824;51.178;13.546;2023-04-25T06:44:23;99459.00;;;16.50
4421;BMP180;11824;51.178;13.546;2023-04-25T06:46:50;99460.00;;;16.20
4421;BMP180;11824;51.178;13.546;2023-04-25T06:49:18;99465.00;;;15.80
4421;BMP180;11824;51.178;13.546;2023-04-25T06:51:46;99462.00;;;15.40
4421;BMP180;11824;51.178;13.546;2023-04-25T06:54:13;99464.00;;;14.90
4421;BMP180;11824;51.178;13.546;2023-04-25T06:56:40;99461.00;;;14.50
4421;BMP180;11824;51.178;13.546;2023-04-25T06:59:08;99461.00;;;14.10
4421;BMP180;11824;51.178;13.546;2023-04-25T07:01:35;99459.00;;;13.70
4421;BMP180;11824;51.178;13.546;2023-04-25T07:04:03;99454.00;;;13.40
4421;BMP180;11824;51.178;13.546;2023-04-25T07:06:31;99453.00;;;13.20
4421;BMP180;11824;51.178;13.546;2023-04-25T07:08:59;99456.00;;;13.00
4421;BMP180;11824;51.178;13.546;2023-04-25T07:11:26;99454.00;;;12.80
4421;BMP180;11824;51.178;13.546;2023-04-25T07:13:53;99462.00;;;12.70
4421;BMP180;11824;51.178;13.546;2023-04-25T07:16:20;99463.00;;;12.60
4421;BMP180;11824;51.178;13.546;2023-04-25T07:18:48;99472.00;;;12.50
4421;BMP180;11824;51.178;13.546;2023-04-25T07:21:16;99467.00;;;12.40
4421;BMP180;11824;51.178;13.546;2023-04-25T07:23:44;99456.00;;;12.30
4421;BMP180;11824;51.178;13.546;2023-04-25T07:26:11;99461.00;;;12.20
4421;BMP180;11824;51.178;13.546;2023-04-25T07:28:38;99474.00;;;12.20
4421;BMP180;11824;51.178;13.546;2023-04-25T07:31:06;99469.00;;;12.20
4421;BMP180;11824;51.178;13.546;2023-04-25T07:33:34;99471.00;;;12.20
4421;BMP180;11824;51.178;13.546;2023-04-25T07:36:01;99468.00;;;12.30
4421;BMP180;11824;51.178;13.546;2023-04-25T07:38:29;99472.00;;;12.50
4421;BMP180;11824;51.178;13.546;2023-04-25T07:40:57;99475.00;;;12.60
4421;BMP180;11824;51.178;13.546;2023-04-25T07:43:24;99477.00;;;12.90
4421;BMP180;11824;51.178;13.546;2023-04-25T07:45:51;99484.00;;;13.00
4421;BMP180;11824;51.178;13.546;2023-04-25T07:48:19;99476.00;;;13.20
4421;BMP180;11824;51.178;13.546;2023-04-25T07:50:46;99483.00;;;13.40
4421;BMP180;11824;51.178;13.546;2023-04-25T07:53:13;99481.00;;;13.50
4421;BMP180;11824;51.178;13.546;2023-04-25T07:55:42;99484.00;;;13.60
4421;BMP180;11824;51.178;13.546;2023-04-25T07:58:13;99485.00;;;13.80
4421;BMP180;11824;51.178;13.546;2023-04-25T08:00:44;99494.00;;;13.90
4421;BMP180;11824;51.178;13.546;2023-04-25T08:03:12;99488.00;;;13.90
4421;BMP180;11824;51.178;13.546;2023-04-25T08:05:39;99496.00;;;13.90
4421;BMP180;11824;51.178;13.546;2023-04-25T08:08:07;99499.00;;;13.80
4421;BMP180;11824;51.178;13.546;2023-04-25T08:10:37;99492.00;;;13.80
4421;BMP180;11824;51.178;13.546;2023-04-25T08:13:05;99513.00;;;13.70
4421;BMP180;11824;51.178;13.546;2023-04-25T08:15:33;99496.00;;;13.50
4421;BMP180;11824;51.178;13.546;2023-04-25T08:18:05;99496.00;;;13.40
4421;BMP180;11824;51.178;13.546;2023-04-25T08:20:32;99508.00;;;13.40
4421;BMP180;11824;51.178;13.546;2023-04-25T08:23:00;99514.00;;;13.50
4421;BMP180;11824;51.178;13.546;2023-04-25T08:25:30;99505.00;;;13.50
4421;BMP180;11824;51.178;13.546;2023-04-25T08:28:01;99502.00;;;13.50
4421;BMP180;11824;51.178;13.546;2023-04-25T08:30:29;99519.00;;;13.50
4421;BMP180;11824;51.178;13.546;2023-04-25T08:32:57;99517.00;;;13.40
4421;BMP180;11824;51.178;13.546;2023-04-25T08:35:25;99512.00;;;13.40
4421;BMP180;11824;51.178;13.546;2023-04-25T08:37:53;99511.00;;;13.40
4421;BMP180;11824;51.178;13.546;2023-04-25T08:40:23;99514.00;;;13.50
4421;BMP180;11824;51.178;13.546;2023-04-25T08:42:53;99514.00;;;13.60
4421;BMP180;11824;51.178;13.546;2023-04-25T08:45:22;99510.00;;;13.50
4421;BMP180;11824;51.178;13.546;2023-04-25T08:47:52;99517.00;;;13.60
4421;BMP180;11824;51.178;13.546;2023-04-25T08:50:21;99512.00;;;13.50
4421;BMP180;11824;51.178;13.546;2023-04-25T08:52:50;99527.00;;;13.50
4421;BMP180;11824;51.178;13.546;2023-04-25T08:55:21;99532.00;;;13.50
4421;BMP180;11824;51.178;13.546;2023-04-25T08:57:49;99537.00;;;13.40
4421;BMP180;11824;51.178;13.546;2023-04-25T09:00:17;99543.00;;;13.40
4421;BMP180;11824;51.178;13.546;2023-04-25T09:02:46;99538.00;;;13.30
4421;BMP180;11824;51.178;13.546;2023-04-25T09:05:14;99536.00;;;13.30
4421;BMP180;11824;51.178;13.546;2023-04-25T09:07:42;99544.00;;;13.30
4421;BMP180;11824;51.178;13.546;2023-04-25T09:10:10;99546.00;;;13.40
4421;BMP180;11824;51.178;13.546;2023-04-25T09:12:37;99563.00;;;13.50
4421;BMP180;11824;51.178;13.546;2023-04-25T09:15:07;99548.00;;;13.50
4421;BMP180;11824;51.178;13.546;2023-04-25T09:17:34;99565.00;;;13.50
4421;BMP180;11824;51.178;13.546;2023-04-25T09:20:09;99562.00;;;13.60
4421;BMP180;11824;51.178;13.546;2023-04-25T09:22:38;99569.00;;;13.60
4421;BMP180;11824;51.178;13.546;2023-04-25T09:25:09;99567.00;;;13.70
4421;BMP180;11824;51.178;13.546;2023-04-25T09:27:37;99571.00;;;13.70
4421;BMP180;11824;51.178;13.546;2023-04-25T09:30:16;99580.00;;;13.70
4421;BMP180;11824;51.178;13.546;2023-04-25T09:32:44;99585.00;;;13.70
4421;BMP180;11824;51.178;13.546;2023-04-25T09:35:23;99585.00;;;13.70
4421;BMP180;11824;51.178;13.546;2023-04-25T09:37:52;99592.00;;;13.70
4421;BMP180;11824;51.178;13.546;2023-04-25T09:40:20;99593.00;;;13.70
4421;BMP180;11824;51.178;13.546;2023-04-25T09:42:47;99590.00;;;13.80
4421;BMP180;11824;51.178;13.546;2023-04-25T09:45:14;99593.00;;;13.80
4421;BMP180;11824;51.178;13.546;2023-04-25T09:47:42;99587.00;;;13.90
4421;BMP180;11824;51.178;13.546;2023-04-25T09:50:15;99597.00;;;14.00
4421;BMP180;11824;51.178;13.546;2023-04-25T09:52:42;99596.00;;;14.10
4421;BMP180;11824;51.178;13.546;2023-04-25T09:55:10;99609.00;;;14.10
4421;BMP180;11824;51.178;13.546;2023-04-25T09:57:38;99592.00;;;14.10
4421;BMP180;11824;51.178;13.546;2023-04-25T10:00:08;99610.00;;;14.10
4421;BMP180;11824;51.178;13.546;2023-04-25T10:02:39;99600.00;;;14.00
4421;BMP180;11824;51.178;13.546;2023-04-25T10:05:09;99601.00;;;13.90
4421;BMP180;11824;51.178;13.546;2023-04-25T10:07:37;99603.00;;;13.90
4421;BMP180;11824;51.178;13.546;2023-04-25T10:10:06;99604.00;;;14.00
4421;BMP180;11824;51.178;13.546;2023-04-25T10:12:34;99605.00;;;14.00
4421;BMP180;11824;51.178;13.546;2023-04-25T10:15:03;99599.00;;;14.10
4421;BMP180;11824;51.178;13.546;2023-04-25T10:17:31;99605.00;;;14.00
4421;BMP180;11824;51.178;13.546;2023-04-25T10:20:01;99609.00;;;13.90
4421;BMP180;11824;51.178;13.546;2023-04-25T10:22:32;99610.00;;;13.80
4421;BMP180;11824;51.178;13.546;2023-04-25T10:25:01;99621.00;;;13.70
4421;BMP180;11824;51.178;13.546;2023-04-25T10:27:30;99617.00;;;13.50
4421;BMP180;11824;51.178;13.546;2023-04-25T10:30:03;99615.00;;;13.40
4421;BMP180;11824;51.178;13.546;2023-04-25T10:32:31;99624.00;;;13.20
4421;BMP180;11824;51.178;13.546;2023-04-25T10:35:10;99618.00;;;13.00
4421;BMP180;11824;51.178;13.546;2023-04-25T10:37:38;99624.00;;;12.90
4421;BMP180;11824;51.178;13.546;2023-04-25T10:40:10;99638.00;;;12.70
4421;BMP180;11824;51.178;13.546;2023-04-25T10:42:38;99643.00;;;12.60
4421;BMP180;11824;51.178;13.546;2023-04-25T10:45:09;99640.00;;;12.40
4421;BMP180;11824;51.178;13.546;2023-04-25T10:47:43;99647.00;;;12.30
4421;BMP180;11824;51.178;13.546;2023-04-25T10:50:12;99647.00;;;12.30
4421;BMP180;11824;51.178;13.546;2023-04-25T10:52:41;99648.00;;;12.30
4421;BMP180;11824;51.178;13.546;2023-04-25T10:55:09;99655.00;;;12.40
4421;BMP180;11824;51.178;13.546;2023-04-25T10:57:40;99652.00;;;12.40
4421;BMP180;11824;51.178;13.546;2023-04-25T11:00:11;99648.00;;;12.50
4421;BMP180;11824;51.178;13.546;2023-04-25T11:02:46;99658.00;;;12.50
4421;BMP180;11824;51.178;13.546;2023-04-25T11:05:23;99661.00;;;12.40
4421;BMP180;11824;51.178;13.546;2023-04-25T11:07:54;99654.00;;;12.40
4421;BMP180;11824;51.178;13.546;2023-04-25T11:10:34;99658.00;;;12.40
4421;BMP180;11824;51.178;13.546;2023-04-25T11:13:02;99660.00;;;12.40
4421;BMP180;11824;51.178;13.546;2023-04-25T11:15:45;99663.00;;;12.50
4421;BMP180;11824;51.178;13.546;2023-04-25T11:18:16;99664.00;;;12.60
4421;BMP180;11824;51.178;13.546;2023-04-25T11:20:48;99669.00;;;12.70
4421;BMP180;11824;51.178;13.546;2023-04-25T11:23:16;99667.00;;;12.90
4421;BMP180;11824;51.178;13.546;2023-04-25T11:25:44;99657.00;;;12.90
4421;BMP180;11824;51.178;13.546;2023-04-25T11:28:12;99658.00;;;13.10
4421;BMP180;11824;51.178;13.546;2023-04-25T11:30:39;99654.00;;;13.20
4421;BMP180;11824;51.178;13.546;2023-04-25T11:33:07;99660.00;;;13.40
4421;BMP180;11824;51.178;13.546;2023-04-25T11:35:36;99664.00;;;13.50
4421;BMP180;11824;51.178;13.546;2023-04-25T11:38:03;99670.00;;;13.70
4421;BMP180;11824;51.178;13.546;2023-04-25T11:40:31;99663.00;;;13.80
4421;BMP180;11824;51.178;13.546;2023-04-25T11:43:00;99668.00;;;13.70
4421;BMP180;11824;51.178;13.546;2023-04-25T11:45:29;99661.00;;;13.70
4421;BMP180;11824;51.178;13.546;2023-04-25T11:47:57;99663.00;;;13.60
4421;BMP180;11824;51.178;13.546;2023-04-25T11:50:25;99671.00;;;13.50
4421;BMP180;11824;51.178;13.546;2023-04-25T11:52:57;99684.00;;;13.30
4421;BMP180;11824;51.178;13.546;2023-04-25T11:55:24;99679.00;;;13.20
4421;BMP180;11824;51.178;13.546;2023-04-25T11:57:51;99674.00;;;13.10
4421;BMP180;11824;51.178;13.546;2023-04-25T12:00:20;99679.00;;;13.10
4421;BMP180;11824;51.178;13.546;2023-04-25T12:02:50;99683.00;;;13.10
4421;BMP180;11824;51.178;13.546;2023-04-25T12:05:18;99684.00;;;13.00
4421;BMP180;11824;51.178;13.546;2023-04-25T12:08:10;99675.00;;;13.00
4421;BMP180;11824;51.178;13.546;2023-04-25T12:10:42;99684.00;;;13.00
4421;BMP180;11824;51.178;13.546;2023-04-25T12:13:20;99679.00;;;13.10
4421;BMP180;11824;51.178;13.546;2023-04-25T12:15:48;99677.00;;;13.20
4421;BMP180;11824;51.178;13.546;2023-04-25T12:18:18;99677.00;;;13.30
4421;BMP180;11824;51.178;13.546;2023-04-25T12:20:52;99679.00;;;13.50
4421;BMP180;11824;51.178;13.546;2023-04-25T12:23:26;99681.00;;;13.60
4421;BMP180;11824;51.178;13.546;2023-04-25T12:25:54;99687.00;;;13.80
4421;BMP180;11824;51.178;13.546;2023-04-25T12:28:23;99685.00;;;14.00
4421;BMP180;11824;51.178;13.546;2023-04-25T12:30:55;99697.00;;;14.10
4421;BMP180;11824;51.178;13.546;2023-04-25T12:33:24;99696.00;;;14.10
4421;BMP180;11824;51.178;13.546;2023-04-25T12:35:53;99706.00;;;14.20
4421;BMP180;11824;51.178;13.546;2023-04-25T12:38:25;99701.00;;;14.10
4421;BMP180;11824;51.178;13.546;2023-04-25T12:40:55;99711.00;;;14.10
4421;BMP180;11824;51.178;13.546;2023-04-25T12:43:30;99703.00;;;13.90
4421;BMP180;11824;51.178;13.546;2023-04-25T12:45:57;99716.00;;;13.70
4421;BMP180;11824;51.178;13.546;2023-04-25T12:48:24;99709.00;;;13.50
4421;BMP180;11824;51.178;13.546;2023-04-25T12:50:52;99705.00;;;13.30
4421;BMP180;11824;51.178;13.546;2023-04-25T12:53:20;99715.00;;;13.10
4421;BMP180;11824;51.178;13.546;2023-04-25T12:55:49;99704.00;;;13.00
4421;BMP180;11824;51.178;13.546;2023-04-25T12:58:17;99712.00;;;12.90
4421;BMP180;11824;51.178;13.546;2023-04-25T13:00:45;99715.00;;;12.90
4421;BMP180;11824;51.178;13.546;2023-04-25T13:03:12;99708.00;;;12.70
4421;BMP180;11824;51.178;13.546;2023-04-25T13:05:40;99705.00;;;12.60
4421;BMP180;11824;51.178;13.546;2023-04-25T13:08:08;99719.00;;;12.50
4421;BMP180;11824;51.178;13.546;2023-04-25T13:10:35;99716.00;;;12.40
4421;BMP180;11824;51.178;13.546;2023-04-25T13:13:04;99721.00;;;12.30
4421;BMP180;11824;51.178;13.546;2023-04-25T13:15:31;99728.00;;;12.20
4421;BMP180;11824;51.178;13.546;2023-04-25T13:17:58;99718.00;;;12.20
4421;BMP180;11824;51.178;13.546;2023-04-25T13:20:26;99724.00;;;12.20
4421;BMP180;11824;51.178;13.546;2023-04-25T13:22:53;99724.00;;;12.20
4421;BMP180;11824;51.178;13.546;2023-04-25T13:25:21;99722.00;;;12.20
4421;BMP180;11824;51.178;13.546;2023-04-25T13:27:49;99722.00;;;12.30
4421;BMP180;11824;51.178;13.546;2023-04-25T13:30:17;99718.00;;;12.30
4421;BMP180;11824;51.178;13.546;2023-04-25T13:32:44;99724.00;;;12.40
4421;BMP180;11824;51.178;13.546;2023-04-25T13:35:13;99727.00;;;12.50
4421;BMP180;11824;51.178;13.546;2023-04-25T13:37:41;99722.00;;;12.60
4421;BMP180;11824;51.178;13.546;2023-04-25T13:40:10;99731.00;;;12.70
4421;BMP180;11824;51.178;13.546;2023-04-25T13:42:38;99732.00;;;12.90
4421;BMP180;11824;51.178;13.546;2023-04-25T13:45:06;99737.00;;;13.00
4421;BMP180;11824;51.178;13.546;2023-04-25T13:47:35;99743.00;;;13.20
4421;BMP180;11824;51.178;13.546;2023-04-25T13:50:03;99735.00;;;13.30
4421;BMP180;11824;51.178;13.546;2023-04-25T13:52:32;99735.00;;;13.40
4421;BMP180;11824;51.178;13.546;2023-04-25T13:55:00;99747.00;;;13.40
4421;BMP180;11824;51.178;13.546;2023-04-25T13:57:31;99736.00;;;13.40
4421;BMP180;11824;51.178;13.546;2023-04-25T13:59:58;99746.00;;;13.40
4421;BMP180;11824;51.178;13.546;2023-04-25T14:02:26;99742.00;;;13.40
4421;BMP180;11824;51.178;13.546;2023-04-25T14:04:54;99741.00;;;13.50
4421;BMP180;11824;51.178;13.546;2023-04-25T14:07:21;99754.00;;;13.50
4421;BMP180;11824;51.178;13.546;2023-04-25T14:09:48;99740.00;;;13.50
4421;BMP180;11824;51.178;13.546;2023-04-25T14:12:17;99741.00;;;13.50
4421;BMP180;11824;51.178;13.546;2023-04-25T14:14:44;99755.00;;;13.50
4421;BMP180;11824;51.178;13.546;2023-04-25T14:17:11;99746.00;;;13.50
4421;BMP180;11824;51.178;13.546;2023-04-25T14:19:39;99749.00;;;13.50